sensor_id;sensor_type;location;lat;lon;timestamp;P1;durP1;ratioP1;P2;durP2;ratioP2
57327;SDS011;43162;51.040;18.244;2022-08-19T00:01:38;9.70;;;6.80;;
57327;SDS011;43162;51.040;18.244;2022-08-19T00:04:05;11.20;;;7.10;;
57327;SDS011;43162;51.040;18.244;2022-08-19T00:06:30;12.80;;;7.20;;
57327;SDS011;43162;51.040;18.244;2022-08-19T00:08:57;12.70;;;7.40;;
57327;SDS011;43162;51.040;18.244;2022-08-19T00:11:23;10.90;;;7.30;;
57327;SDS011;43162;51.040;18.244;2022-08-19T00:13:49;11.40;;;7.20;;
57327;SDS011;43162;51.040;18.244;2022-08-19T00:16:18;10.80;;;7.20;;
57327;SDS011;43162;51.040;18.244;2022-08-19T00:18:44;11.00;;;7.30;;
57327;SDS011;43162;51.040;18.244;2022-08-19T00:21:10;10.30;;;7.30;;
57327;SDS011;43162;51.040;18.244;2022-08-19T00:23:36;10.20;;;7.30;;
57327;SDS011;43162;51.040;18.244;2022-08-19T00:26:03;10.70;;;7.40;;
57327;SDS011;43162;51.040;18.244;2022-08-19T00:28:29;13.40;;;7.10;;
57327;SDS011;43162;51.040;18.244;2022-08-19T00:30:55;10.50;;;7.00;;
57327;SDS011;43162;51.040;18.244;2022-08-19T00:33:21;11.30;;;7.40;;
57327;SDS011;43162;51.040;18.244;2022-08-19T00:35:46;11.80;;;6.90;;
57327;SDS011;43162;51.040;18.244;2022-08-19T00:38:12;11.40;;;7.60;;
57327;SDS011;43162;51.040;18.244;2022-08-19T00:40:38;11.10;;;7.50;;
57327;SDS011;43162;51.040;18.244;2022-08-19T00:43:08;10.50;;;7.20;;
57327;SDS011;43162;51.040;18.244;2022-08-19T00:45:34;11.40;;;7.20;;
57327;SDS011;43162;51.040;18.244;2022-08-19T00:48:01;10.70;;;7.30;;
57327;SDS011;43162;51.040;18.244;2022-08-19T00:50:29;10.60;;;7.40;;
57327;SDS011;43162;51.040;18.244;2022-08-19T00:52:55;10.50;;;7.90;;
57327;SDS011;43162;51.040;18.244;2022-08-19T00:55:22;11.00;;;7.30;;
57327;SDS011;43162;51.040;18.244;2022-08-19T00:57:51;10.20;;;7.40;;
57327;SDS011;43162;51.040;18.244;2022-08-19T01:00:21;11.60;;;7.70;;
57327;SDS011;43162;51.040;18.244;2022-08-19T01:02:47;10.70;;;7.60;;
57327;SDS011;43162;51.040;18.244;2022-08-19T01:05:18;12.80;;;7.40;;
57327;SDS011;43162;51.040;18.244;2022-08-19T01:07:46;12.50;;;7.70;;
57327;SDS011;43162;51.040;18.244;2022-08-19T01:10:14;11.30;;;7.70;;
57327;SDS011;43162;51.040;18.244;2022-08-19T01:12:41;10.70;;;8.10;;
57327;SDS011;43162;51.040;18.244;2022-08-19T01:15:08;11.60;;;8.30;;
57327;SDS011;43162;51.040;18.244;2022-08-19T01:17:35;12.60;;;8.40;;
57327;SDS011;43162;51.040;18.244;2022-08-19T01:20:03;10.70;;;8.10;;
57327;SDS011;43162;51.040;18.244;2022-08-19T01:22:43;11.80;;;8.20;;
57327;SDS011;43162;51.040;18.244;2022-08-19T01:25:09;11.10;;;8.30;;
57327;SDS011;43162;51.040;18.244;2022-08-19T01:27:37;10.50;;;8.00;;
57327;SDS011;43162;51.040;18.244;2022-08-19T01:30:04;11.60;;;8.40;;
57327;SDS011;43162;51.040;18.244;2022-08-19T01:32:31;10.90;;;8.40;;
57327;SDS011;43162;51.040;18.244;2022-08-19T01:34:56;11.00;;;8.20;;
57327;SDS011;43162;51.040;18.244;2022-08-19T01:37:23;12.40;;;8.40;;
57327;SDS011;43162;51.040;18.244;2022-08-19T01:39:49;14.00;;;8.50;;
57327;SDS011;43162;51.040;18.244;2022-08-19T01:42:15;11.60;;;8.80;;
57327;SDS011;43162;51.040;18.244;2022-08-19T01:44:41;11.90;;;8.70;;
57327;SDS011;43162;51.040;18.244;2022-08-19T01:47:07;11.20;;;8.50;;
57327;SDS011;43162;51.040;18.244;2022-08-19T01:49:34;12.70;;;8.40;;
57327;SDS011;43162;51.040;18.244;2022-08-19T01:51:59;11.70;;;8.60;;
57327;SDS011;43162;51.040;18.244;2022-08-19T01:54:25;10.50;;;8.60;;
57327;SDS011;43162;51.040;18.244;2022-08-19T01:56:51;13.50;;;9.00;;
57327;SDS011;43162;51.040;18.244;2022-08-19T01:59:19;11.90;;;8.60;;
57327;SDS011;43162;51.040;18.244;2022-08-19T02:01:45;12.00;;;8.80;;
57327;SDS011;43162;51.040;18.244;2022-08-19T02:04:11;11.80;;;8.80;;
57327;SDS011;43162;51.040;18.244;2022-08-19T02:06:36;11.00;;;8.70;;
57327;SDS011;43162;51.040;18.244;2022-08-19T02:09:03;10.20;;;8.40;;
57327;SDS011;43162;51.040;18.244;2022-08-19T02:11:30;14.50;;;9.30;;
57327;SDS011;43162;51.040;18.244;2022-08-19T02:14:00;11.50;;;8.70;;
57327;SDS011;43162;51.040;18.244;2022-08-19T02:16:27;10.70;;;8.40;;
57327;SDS011;43162;51.040;18.244;2022-08-19T02:18:54;14.80;;;9.40;;
57327;SDS011;43162;51.040;18.244;2022-08-19T02:21:20;12.00;;;9.10;;
57327;SDS011;43162;51.040;18.244;2022-08-19T02:23:46;10.80;;;9.20;;
57327;SDS011;43162;51.040;18.244;2022-08-19T02:26:11;12.40;;;9.60;;
57327;SDS011;43162;51.040;18.244;2022-08-19T02:28:38;11.70;;;9.30;;
57327;SDS011;43162;51.040;18.244;2022-08-19T02:31:03;12.10;;;9.00;;
57327;SDS011;43162;51.040;18.244;2022-08-19T02:33:34;11.40;;;9.10;;
57327;SDS011;43162;51.040;18.244;2022-08-19T02:36:02;12.10;;;9.50;;
57327;SDS011;43162;51.040;18.244;2022-08-19T02:38:28;13.70;;;9.90;;
57327;SDS011;43162;51.040;18.244;2022-08-19T02:40:58;12.90;;;9.80;;
57327;SDS011;43162;51.040;18.244;2022-08-19T02:43:25;12.90;;;9.50;;
57327;SDS011;43162;51.040;18.244;2022-08-19T02:45:51;12.30;;;10.00;;
57327;SDS011;43162;51.040;18.244;2022-08-19T02:48:18;13.20;;;9.70;;
57327;SDS011;43162;51.040;18.244;2022-08-19T02:50:45;12.60;;;10.30;;
57327;SDS011;43162;51.040;18.244;2022-08-19T02:53:11;12.50;;;9.40;;
57327;SDS011;43162;51.040;18.244;2022-08-19T02:55:42;12.90;;;9.60;;
57327;SDS011;43162;51.040;18.244;2022-08-19T02:58:08;12.90;;;9.90;;
57327;SDS011;43162;51.040;18.244;2022-08-19T03:00:34;13.60;;;9.80;;
57327;SDS011;43162;51.040;18.244;2022-08-19T03:02:59;12.80;;;9.90;;
57327;SDS011;43162;51.040;18.244;2022-08-19T03:05:25;14.20;;;10.40;;
57327;SDS011;43162;51.040;18.244;2022-08-19T03:07:52;11.30;;;9.80;;
57327;SDS011;43162;51.040;18.244;2022-08-19T03:10:18;12.90;;;9.90;;
57327;SDS011;43162;51.040;18.244;2022-08-19T03:12:43;13.50;;;10.00;;
57327;SDS011;43162;51.040;18.244;2022-08-19T03:15:11;11.80;;;10.40;;
57327;SDS011;43162;51.040;18.244;2022-08-19T03:17:36;13.20;;;10.30;;
57327;SDS011;43162;51.040;18.244;2022-08-19T03:20:02;14.90;;;10.60;;
57327;SDS011;43162;51.040;18.244;2022-08-19T03:22:28;14.20;;;10.80;;
57327;SDS011;43162;51.040;18.244;2022-08-19T03:24:55;13.90;;;10.80;;
57327;SDS011;43162;51.040;18.244;2022-08-19T03:27:21;13.40;;;10.20;;
57327;SDS011;43162;51.040;18.244;2022-08-19T03:29:46;14.30;;;10.90;;
57327;SDS011;43162;51.040;18.244;2022-08-19T03:32:11;14.50;;;11.20;;
57327;SDS011;43162;51.040;18.244;2022-08-19T03:34:38;14.20;;;10.70;;
57327;SDS011;43162;51.040;18.244;2022-08-19T03:37:05;14.30;;;10.50;;
57327;SDS011;43162;51.040;18.244;2022-08-19T03:39:31;13.70;;;11.00;;
57327;SDS011;43162;51.040;18.244;2022-08-19T03:41:57;13.80;;;10.60;;
57327;SDS011;43162;51.040;18.244;2022-08-19T03:44:28;13.80;;;10.40;;
57327;SDS011;43162;51.040;18.244;2022-08-19T03:46:54;14.90;;;11.40;;
57327;SDS011;43162;51.040;18.244;2022-08-19T03:49:21;13.70;;;10.50;;
57327;SDS011;43162;51.040;18.244;2022-08-19T03:51:49;16.40;;;10.40;;
57327;SDS011;43162;51.040;18.244;2022-08-19T03:54:16;14.20;;;10.80;;
57327;SDS011;43162;51.040;18.244;2022-08-19T03:56:42;12.70;;;10.60;;
57327;SDS011;43162;51.040;18.244;2022-08-19T03:59:10;12.70;;;10.10;;
57327;SDS011;43162;51.040;18.244;2022-08-19T04:01:36;13.70;;;10.60;;
57327;SDS011;43162;51.040;18.244;2022-08-19T04:04:02;11.60;;;10.20;;
57327;SDS011;43162;51.040;18.244;2022-08-19T04:06:28;15.90;;;10.90;;
57327;SDS011;43162;51.040;18.244;2022-08-19T04:08:56;12.90;;;10.10;;
57327;SDS011;43162;51.040;18.244;2022-08-19T04:11:24;13.80;;;10.50;;
57327;SDS011;43162;51.040;18.244;2022-08-19T04:13:51;13.40;;;10.50;;
57327;SDS011;43162;51.040;18.244;2022-08-19T04:16:17;15.20;;;10.50;;
57327;SDS011;43162;51.040;18.244;2022-08-19T04:18:43;13.30;;;10.60;;
57327;SDS011;43162;51.040;18.244;2022-08-19T04:21:14;13.00;;;10.50;;
57327;SDS011;43162;51.040;18.244;2022-08-19T04:23:41;14.90;;;10.10;;
57327;SDS011;43162;51.040;18.244;2022-08-19T04:26:07;13.60;;;10.20;;
57327;SDS011;43162;51.040;18.244;2022-08-19T04:28:36;13.60;;;10.10;;
57327;SDS011;43162;51.040;18.244;2022-08-19T04:31:02;12.20;;;9.90;;
57327;SDS011;43162;51.040;18.244;2022-08-19T04:33:28;12.60;;;9.60;;
57327;SDS011;43162;51.040;18.244;2022-08-19T04:35:53;11.20;;;9.40;;
57327;SDS011;43162;51.040;18.244;2022-08-19T04:38:20;12.00;;;8.80;;
57327;SDS011;43162;51.040;18.244;2022-08-19T04:40:48;11.90;;;8.90;;
57327;SDS011;43162;51.040;18.244;2022-08-19T04:43:33;12.60;;;9.20;;
57327;SDS011;43162;51.040;18.244;2022-08-19T04:46:07;13.20;;;8.70;;
57327;SDS011;43162;51.040;18.244;2022-08-19T04:48:34;12.50;;;8.20;;
57327;SDS011;43162;51.040;18.244;2022-08-19T04:50:59;11.00;;;8.20;;
57327;SDS011;43162;51.040;18.244;2022-08-19T04:53:28;10.60;;;8.10;;
57327;SDS011;43162;51.040;18.244;2022-08-19T04:55:55;12.30;;;8.20;;
57327;SDS011;43162;51.040;18.244;2022-08-19T04:58:22;13.10;;;8.00;;
57327;SDS011;43162;51.040;18.244;2022-08-19T05:00:48;16.00;;;8.10;;
57327;SDS011;43162;51.040;18.244;2022-08-19T05:03:13;12.10;;;7.70;;
57327;SDS011;43162;51.040;18.244;2022-08-19T05:05:42;12.80;;;8.00;;
57327;SDS011;43162;51.040;18.244;2022-08-19T05:08:10;13.20;;;7.70;;
57327;SDS011;43162;51.040;18.244;2022-08-19T05:10:36;12.30;;;7.80;;
57327;SDS011;43162;51.040;18.244;2022-08-19T05:13:02;13.20;;;7.80;;
57327;SDS011;43162;51.040;18.244;2022-08-19T05:15:29;12.30;;;7.60;;
57327;SDS011;43162;51.040;18.244;2022-08-19T05:17:54;12.70;;;7.40;;
57327;SDS011;43162;51.040;18.244;2022-08-19T05:20:39;12.00;;;7.30;;
57327;SDS011;43162;51.040;18.244;2022-08-19T05:23:23;12.80;;;7.30;;
57327;SDS011;43162;51.040;18.244;2022-08-19T05:25:50;12.90;;;6.90;;
57327;SDS011;43162;51.040;18.244;2022-08-19T05:28:16;12.40;;;7.50;;
57327;SDS011;43162;51.040;18.244;2022-08-19T05:30:42;10.40;;;6.70;;
57327;SDS011;43162;51.040;18.244;2022-08-19T05:33:10;11.40;;;7.00;;
57327;SDS011;43162;51.040;18.244;2022-08-19T05:35:37;12.10;;;6.90;;
57327;SDS011;43162;51.040;18.244;2022-08-19T05:38:03;11.10;;;6.50;;
57327;SDS011;43162;51.040;18.244;2022-08-19T05:40:29;11.20;;;7.10;;
57327;SDS011;43162;51.040;18.244;2022-08-19T05:42:55;13.30;;;6.80;;
57327;SDS011;43162;51.040;18.244;2022-08-19T05:45:21;11.10;;;6.50;;
57327;SDS011;43162;51.040;18.244;2022-08-19T05:47:47;12.20;;;6.80;;
57327;SDS011;43162;51.040;18.244;2022-08-19T05:50:12;14.30;;;6.50;;
57327;SDS011;43162;51.040;18.244;2022-08-19T05:52:38;12.40;;;6.80;;
57327;SDS011;43162;51.040;18.244;2022-08-19T05:55:04;12.40;;;6.80;;
57327;SDS011;43162;51.040;18.244;2022-08-19T05:57:30;10.70;;;6.50;;
57327;SDS011;43162;51.040;18.244;2022-08-19T05:59:56;11.30;;;6.40;;
57327;SDS011;43162;51.040;18.244;2022-08-19T06:02:22;14.40;;;6.60;;
57327;SDS011;43162;51.040;18.244;2022-08-19T06:04:48;12.80;;;6.30;;
57327;SDS011;43162;51.040;18.244;2022-08-19T06:07:14;10.70;;;6.40;;
57327;SDS011;43162;51.040;18.244;2022-08-19T06:09:40;12.30;;;6.40;;
57327;SDS011;43162;51.040;18.244;2022-08-19T06:12:06;10.30;;;6.30;;
57327;SDS011;43162;51.040;18.244;2022-08-19T06:14:33;13.00;;;6.60;;
57327;SDS011;43162;51.040;18.244;2022-08-19T06:17:00;12.20;;;6.10;;
57327;SDS011;43162;51.040;18.244;2022-08-19T06:19:27;10.40;;;5.90;;
57327;SDS011;43162;51.040;18.244;2022-08-19T06:21:55;13.90;;;6.20;;
57327;SDS011;43162;51.040;18.244;2022-08-19T06:24:21;12.70;;;6.10;;
57327;SDS011;43162;51.040;18.244;2022-08-19T06:26:49;12.60;;;6.60;;
57327;SDS011;43162;51.040;18.244;2022-08-19T06:29:17;10.30;;;5.90;;
57327;SDS011;43162;51.040;18.244;2022-08-19T06:31:44;9.70;;;6.00;;
57327;SDS011;43162;51.040;18.244;2022-08-19T06:34:10;11.10;;;6.30;;
57327;SDS011;43162;51.040;18.244;2022-08-19T06:36:36;10.80;;;5.80;;
57327;SDS011;43162;51.040;18.244;2022-08-19T06:39:03;12.70;;;6.10;;
57327;SDS011;43162;51.040;18.244;2022-08-19T06:41:29;10.20;;;5.70;;
57327;SDS011;43162;51.040;18.244;2022-08-19T06:43:56;12.80;;;5.50;;
57327;SDS011;43162;51.040;18.244;2022-08-19T06:46:21;11.90;;;5.20;;
57327;SDS011;43162;51.040;18.244;2022-08-19T06:48:47;8.80;;;5.20;;
57327;SDS011;43162;51.040;18.244;2022-08-19T06:51:19;11.00;;;5.50;;
57327;SDS011;43162;51.040;18.244;2022-08-19T06:53:46;9.60;;;5.30;;
57327;SDS011;43162;51.040;18.244;2022-08-19T06:56:15;15.30;;;5.50;;
57327;SDS011;43162;51.040;18.244;2022-08-19T06:58:42;9.80;;;4.20;;
57327;SDS011;43162;51.040;18.244;2022-08-19T07:01:10;9.10;;;4.40;;
57327;SDS011;43162;51.040;18.244;2022-08-19T07:03:37;9.50;;;4.20;;
57327;SDS011;43162;51.040;18.244;2022-08-19T07:06:04;8.80;;;4.30;;
57327;SDS011;43162;51.040;18.244;2022-08-19T07:08:30;10.00;;;4.30;;
57327;SDS011;43162;51.040;18.244;2022-08-19T07:10:57;8.20;;;4.20;;
57327;SDS011;43162;51.040;18.244;2022-08-19T07:13:22;10.60;;;4.10;;
57327;SDS011;43162;51.040;18.244;2022-08-19T07:15:48;9.60;;;3.80;;
57327;SDS011;43162;51.040;18.244;2022-08-19T07:18:17;9.30;;;4.00;;
57327;SDS011;43162;51.040;18.244;2022-08-19T07:20:43;9.10;;;3.90;;
57327;SDS011;43162;51.040;18.244;2022-08-19T07:23:08;12.70;;;3.80;;
57327;SDS011;43162;51.040;18.244;2022-08-19T07:25:36;11.20;;;3.90;;
57327;SDS011;43162;51.040;18.244;2022-08-19T07:28:01;11.10;;;4.10;;
57327;SDS011;43162;51.040;18.244;2022-08-19T07:30:28;9.60;;;3.90;;
57327;SDS011;43162;51.040;18.244;2022-08-19T07:32:53;11.30;;;3.90;;
57327;SDS011;43162;51.040;18.244;2022-08-19T07:35:22;9.70;;;4.10;;
57327;SDS011;43162;51.040;18.244;2022-08-19T07:37:49;9.60;;;3.70;;
57327;SDS011;43162;51.040;18.244;2022-08-19T07:40:14;10.00;;;4.20;;
57327;SDS011;43162;51.040;18.244;2022-08-19T07:42:40;11.20;;;4.40;;
57327;SDS011;43162;51.040;18.244;2022-08-19T07:45:08;11.20;;;4.60;;
57327;SDS011;43162;51.040;18.244;2022-08-19T07:47:33;9.90;;;4.10;;
57327;SDS011;43162;51.040;18.244;2022-08-19T07:50:00;16.10;;;4.30;;
57327;SDS011;43162;51.040;18.244;2022-08-19T07:52:25;9.10;;;4.00;;
57327;SDS011;43162;51.040;18.244;2022-08-19T07:54:50;9.90;;;3.70;;
57327;SDS011;43162;51.040;18.244;2022-08-19T07:57:16;16.20;;;6.80;;
57327;SDS011;43162;51.040;18.244;2022-08-19T07:59:42;8.90;;;4.10;;
57327;SDS011;43162;51.040;18.244;2022-08-19T08:02:08;10.10;;;3.60;;
57327;SDS011;43162;51.040;18.244;2022-08-19T08:04:34;12.00;;;3.90;;
57327;SDS011;43162;51.040;18.244;2022-08-19T08:07:18;10.90;;;4.10;;
57327;SDS011;43162;51.040;18.244;2022-08-19T08:10:04;8.90;;;3.70;;
57327;SDS011;43162;51.040;18.244;2022-08-19T08:12:32;10.80;;;3.90;;
57327;SDS011;43162;51.040;18.244;2022-08-19T08:15:00;10.30;;;4.20;;
57327;SDS011;43162;51.040;18.244;2022-08-19T08:17:27;11.60;;;4.00;;
57327;SDS011;43162;51.040;18.244;2022-08-19T08:19:53;13.50;;;4.40;;
57327;SDS011;43162;51.040;18.244;2022-08-19T08:22:20;10.80;;;4.70;;
57327;SDS011;43162;51.040;18.244;2022-08-19T08:25:08;12.70;;;4.40;;
57327;SDS011;43162;51.040;18.244;2022-08-19T08:27:41;10.50;;;4.00;;
57327;SDS011;43162;51.040;18.244;2022-08-19T08:30:08;11.50;;;4.20;;
57327;SDS011;43162;51.040;18.244;2022-08-19T08:32:35;11.30;;;4.40;;
57327;SDS011;43162;51.040;18.244;2022-08-19T08:35:04;11.00;;;4.20;;
57327;SDS011;43162;51.040;18.244;2022-08-19T08:37:29;12.60;;;4.20;;
57327;SDS011;43162;51.040;18.244;2022-08-19T08:39:55;13.10;;;4.10;;
57327;SDS011;43162;51.040;18.244;2022-08-19T08:42:27;10.00;;;3.90;;
57327;SDS011;43162;51.040;18.244;2022-08-19T08:44:59;11.20;;;4.00;;
57327;SDS011;43162;51.040;18.244;2022-08-19T08:47:27;11.80;;;3.90;;
57327;SDS011;43162;51.040;18.244;2022-08-19T08:49:55;12.40;;;4.20;;
57327;SDS011;43162;51.040;18.244;2022-08-19T08:52:25;11.80;;;4.30;;
57327;SDS011;43162;51.040;18.244;2022-08-19T08:54:53;14.60;;;4.30;;
57327;SDS011;43162;51.040;18.244;2022-08-19T08:57:23;13.30;;;4.60;;
57327;SDS011;43162;51.040;18.244;2022-08-19T08:59:50;15.10;;;4.10;;
57327;SDS011;43162;51.040;18.244;2022-08-19T09:02:20;11.90;;;4.00;;
57327;SDS011;43162;51.040;18.244;2022-08-19T09:04:46;12.40;;;3.70;;
57327;SDS011;43162;51.040;18.244;2022-08-19T09:07:29;12.30;;;4.00;;
57327;SDS011;43162;51.040;18.244;2022-08-19T09:10:05;20.40;;;4.50;;
57327;SDS011;43162;51.040;18.244;2022-08-19T09:12:55;11.90;;;4.00;;
57327;SDS011;43162;51.040;18.244;2022-08-19T09:15:27;16.50;;;4.00;;
57327;SDS011;43162;51.040;18.244;2022-08-19T09:17:53;11.00;;;3.80;;
57327;SDS011;43162;51.040;18.244;2022-08-19T09:20:20;13.90;;;3.60;;
57327;SDS011;43162;51.040;18.244;2022-08-19T09:22:45;12.10;;;3.40;;
57327;SDS011;43162;51.040;18.244;2022-08-19T09:25:16;15.50;;;3.60;;
57327;SDS011;43162;51.040;18.244;2022-08-19T09:27:41;10.00;;;3.00;;
57327;SDS011;43162;51.040;18.244;2022-08-19T09:30:09;10.50;;;2.70;;
57327;SDS011;43162;51.040;18.244;2022-08-19T09:32:35;13.80;;;3.50;;
57327;SDS011;43162;51.040;18.244;2022-08-19T09:35:01;12.90;;;3.30;;
57327;SDS011;43162;51.040;18.244;2022-08-19T09:37:29;11.50;;;3.10;;
57327;SDS011;43162;51.040;18.244;2022-08-19T09:39:54;11.30;;;3.10;;
57327;SDS011;43162;51.040;18.244;2022-08-19T09:42:20;14.00;;;3.10;;
57327;SDS011;43162;51.040;18.244;2022-08-19T09:44:46;9.90;;;2.90;;
57327;SDS011;43162;51.040;18.244;2022-08-19T09:47:12;12.70;;;3.30;;
57327;SDS011;43162;51.040;18.244;2022-08-19T09:49:38;12.90;;;3.40;;
57327;SDS011;43162;51.040;18.244;2022-08-19T09:52:05;13.60;;;3.20;;
57327;SDS011;43162;51.040;18.244;2022-08-19T09:54:33;16.10;;;3.30;;
57327;SDS011;43162;51.040;18.244;2022-08-19T09:56:59;10.00;;;3.30;;
57327;SDS011;43162;51.040;18.244;2022-08-19T09:59:26;12.50;;;3.20;;
57327;SDS011;43162;51.040;18.244;2022-08-19T10:01:52;12.50;;;3.80;;
57327;SDS011;43162;51.040;18.244;2022-08-19T10:04:19;11.80;;;3.10;;
57327;SDS011;43162;51.040;18.244;2022-08-19T10:06:46;12.70;;;3.30;;
57327;SDS011;43162;51.040;18.244;2022-08-19T10:09:13;10.90;;;3.30;;
57327;SDS011;43162;51.040;18.244;2022-08-19T10:11:39;12.70;;;3.20;;
57327;SDS011;43162;51.040;18.244;2022-08-19T10:14:09;11.90;;;3.00;;
57327;SDS011;43162;51.040;18.244;2022-08-19T10:16:36;16.80;;;3.80;;
57327;SDS011;43162;51.040;18.244;2022-08-19T10:19:02;10.50;;;3.60;;
57327;SDS011;43162;51.040;18.244;2022-08-19T10:21:29;14.50;;;3.80;;
57327;SDS011;43162;51.040;18.244;2022-08-19T10:23:56;12.10;;;3.60;;
57327;SDS011;43162;51.040;18.244;2022-08-19T10:26:26;11.50;;;3.20;;
57327;SDS011;43162;51.040;18.244;2022-08-19T10:28:52;12.40;;;3.20;;
57327;SDS011;43162;51.040;18.244;2022-08-19T10:31:19;12.40;;;3.20;;
57327;SDS011;43162;51.040;18.244;2022-08-19T10:33:46;11.20;;;3.40;;
57327;SDS011;43162;51.040;18.244;2022-08-19T10:36:15;9.80;;;3.30;;
57327;SDS011;43162;51.040;18.244;2022-08-19T10:38:43;12.10;;;3.00;;
57327;SDS011;43162;51.040;18.244;2022-08-19T10:41:14;12.30;;;3.00;;
57327;SDS011;43162;51.040;18.244;2022-08-19T10:43:41;16.50;;;3.50;;
57327;SDS011;43162;51.040;18.244;2022-08-19T10:46:08;10.60;;;3.20;;
57327;SDS011;43162;51.040;18.244;2022-08-19T10:48:34;14.40;;;5.20;;
57327;SDS011;43162;51.040;18.244;2022-08-19T10:51:00;10.60;;;3.20;;
57327;SDS011;43162;51.040;18.244;2022-08-19T10:53:44;13.40;;;2.90;;
57327;SDS011;43162;51.040;18.244;2022-08-19T10:56:09;11.20;;;2.90;;
57327;SDS011;43162;51.040;18.244;2022-08-19T10:58:53;16.40;;;3.60;;
57327;SDS011;43162;51.040;18.244;2022-08-19T11:01:19;15.10;;;4.70;;
57327;SDS011;43162;51.040;18.244;2022-08-19T11:03:45;18.60;;;4.30;;
57327;SDS011;43162;51.040;18.244;2022-08-19T11:06:11;11.80;;;3.40;;
57327;SDS011;43162;51.040;18.244;2022-08-19T11:08:37;13.40;;;3.40;;
57327;SDS011;43162;51.040;18.244;2022-08-19T11:11:03;12.80;;;3.40;;
57327;SDS011;43162;51.040;18.244;2022-08-19T11:13:33;13.10;;;3.20;;
57327;SDS011;43162;51.040;18.244;2022-08-19T11:18:33;14.60;;;5.20;;
57327;SDS011;43162;51.040;18.244;2022-08-19T11:21:14;10.10;;;3.40;;
57327;SDS011;43162;51.040;18.244;2022-08-19T11:23:42;11.90;;;3.50;;
57327;SDS011;43162;51.040;18.244;2022-08-19T11:26:08;14.90;;;3.30;;
57327;SDS011;43162;51.040;18.244;2022-08-19T11:28:34;14.60;;;3.60;;
57327;SDS011;43162;51.040;18.244;2022-08-19T11:30:59;12.40;;;3.20;;
57327;SDS011;43162;51.040;18.244;2022-08-19T11:33:25;12.00;;;3.20;;
57327;SDS011;43162;51.040;18.244;2022-08-19T11:35:52;12.60;;;3.40;;
57327;SDS011;43162;51.040;18.244;2022-08-19T11:38:18;13.60;;;3.20;;
57327;SDS011;43162;51.040;18.244;2022-08-19T11:40:44;10.90;;;3.30;;
57327;SDS011;43162;51.040;18.244;2022-08-19T11:43:10;14.00;;;3.40;;
57327;SDS011;43162;51.040;18.244;2022-08-19T11:45:35;14.70;;;3.40;;
57327;SDS011;43162;51.040;18.244;2022-08-19T11:48:01;16.50;;;3.40;;
57327;SDS011;43162;51.040;18.244;2022-08-19T11:50:27;12.20;;;3.70;;
57327;SDS011;43162;51.040;18.244;2022-08-19T11:52:55;12.20;;;4.00;;
57327;SDS011;43162;51.040;18.244;2022-08-19T11:55:21;13.20;;;3.80;;
57327;SDS011;43162;51.040;18.244;2022-08-19T11:57:47;11.90;;;3.80;;
57327;SDS011;43162;51.040;18.244;2022-08-19T12:00:12;17.00;;;4.20;;
57327;SDS011;43162;51.040;18.244;2022-08-19T12:02:38;17.00;;;3.80;;
57327;SDS011;43162;51.040;18.244;2022-08-19T12:05:04;12.80;;;3.90;;
57327;SDS011;43162;51.040;18.244;2022-08-19T12:07:33;14.10;;;4.10;;
57327;SDS011;43162;51.040;18.244;2022-08-19T12:09:59;11.10;;;3.70;;
57327;SDS011;43162;51.040;18.244;2022-08-19T12:12:24;14.30;;;4.00;;
57327;SDS011;43162;51.040;18.244;2022-08-19T12:14:51;13.60;;;3.50;;
57327;SDS011;43162;51.040;18.244;2022-08-19T12:17:28;12.40;;;3.90;;
57327;SDS011;43162;51.040;18.244;2022-08-19T12:19:54;16.80;;;4.30;;
57327;SDS011;43162;51.040;18.244;2022-08-19T12:22:20;13.90;;;4.10;;
57327;SDS011;43162;51.040;18.244;2022-08-19T12:24:46;12.30;;;4.20;;
57327;SDS011;43162;51.040;18.244;2022-08-19T12:27:13;14.30;;;3.90;;
57327;SDS011;43162;51.040;18.244;2022-08-19T12:29:38;13.50;;;4.40;;
57327;SDS011;43162;51.040;18.244;2022-08-19T12:32:04;14.80;;;4.00;;
57327;SDS011;43162;51.040;18.244;2022-08-19T12:34:31;18.70;;;4.30;;
57327;SDS011;43162;51.040;18.244;2022-08-19T12:36:58;11.50;;;4.00;;
57327;SDS011;43162;51.040;18.244;2022-08-19T12:39:24;15.80;;;3.80;;
57327;SDS011;43162;51.040;18.244;2022-08-19T12:41:49;13.50;;;4.30;;
57327;SDS011;43162;51.040;18.244;2022-08-19T12:44:16;12.00;;;4.00;;
57327;SDS011;43162;51.040;18.244;2022-08-19T12:46:42;13.80;;;4.00;;
57327;SDS011;43162;51.040;18.244;2022-08-19T12:49:08;10.60;;;3.80;;
57327;SDS011;43162;51.040;18.244;2022-08-19T12:51:33;15.70;;;3.80;;
57327;SDS011;43162;51.040;18.244;2022-08-19T12:53:59;14.00;;;4.00;;
57327;SDS011;43162;51.040;18.244;2022-08-19T12:56:25;16.20;;;4.00;;
57327;SDS011;43162;51.040;18.244;2022-08-19T12:58:51;11.10;;;4.00;;
57327;SDS011;43162;51.040;18.244;2022-08-19T13:01:17;13.60;;;3.90;;
57327;SDS011;43162;51.040;18.244;2022-08-19T13:03:45;12.70;;;3.60;;
57327;SDS011;43162;51.040;18.244;2022-08-19T13:06:10;11.20;;;3.80;;
57327;SDS011;43162;51.040;18.244;2022-08-19T13:08:36;13.30;;;4.00;;
57327;SDS011;43162;51.040;18.244;2022-08-19T13:11:11;11.50;;;3.90;;
57327;SDS011;43162;51.040;18.244;2022-08-19T13:13:38;13.20;;;3.70;;
57327;SDS011;43162;51.040;18.244;2022-08-19T13:16:06;10.90;;;3.80;;
57327;SDS011;43162;51.040;18.244;2022-08-19T13:18:33;15.50;;;3.80;;
57327;SDS011;43162;51.040;18.244;2022-08-19T13:21:02;12.00;;;3.80;;
57327;SDS011;43162;51.040;18.244;2022-08-19T13:23:29;9.10;;;3.90;;
57327;SDS011;43162;51.040;18.244;2022-08-19T13:25:59;11.90;;;3.70;;
57327;SDS011;43162;51.040;18.244;2022-08-19T13:28:25;13.40;;;4.30;;
57327;SDS011;43162;51.040;18.244;2022-08-19T13:30:50;14.40;;;3.80;;
57327;SDS011;43162;51.040;18.244;2022-08-19T13:33:35;10.20;;;3.70;;
57327;SDS011;43162;51.040;18.244;2022-08-19T13:36:00;9.90;;;3.40;;
57327;SDS011;43162;51.040;18.244;2022-08-19T13:38:26;13.80;;;3.80;;
57327;SDS011;43162;51.040;18.244;2022-08-19T13:40:53;11.20;;;3.70;;
57327;SDS011;43162;51.040;18.244;2022-08-19T13:43:20;10.60;;;3.70;;
57327;SDS011;43162;51.040;18.244;2022-08-19T13:45:47;11.40;;;3.60;;
57327;SDS011;43162;51.040;18.244;2022-08-19T13:48:13;15.40;;;4.10;;
57327;SDS011;43162;51.040;18.244;2022-08-19T13:50:40;14.00;;;3.90;;
57327;SDS011;43162;51.040;18.244;2022-08-19T13:53:08;12.80;;;3.70;;
57327;SDS011;43162;51.040;18.244;2022-08-19T13:55:34;11.40;;;3.70;;
57327;SDS011;43162;51.040;18.244;2022-08-19T13:58:01;11.80;;;3.80;;
57327;SDS011;43162;51.040;18.244;2022-08-19T14:00:29;14.10;;;3.70;;
57327;SDS011;43162;51.040;18.244;2022-08-19T14:02:55;9.10;;;3.90;;
57327;SDS011;43162;51.040;18.244;2022-08-19T14:05:21;11.20;;;3.60;;
57327;SDS011;43162;51.040;18.244;2022-08-19T14:07:48;12.30;;;3.90;;
57327;SDS011;43162;51.040;18.244;2022-08-19T14:10:14;9.90;;;3.80;;
57327;SDS011;43162;51.040;18.244;2022-08-19T14:12:40;10.20;;;3.80;;
57327;SDS011;43162;51.040;18.244;2022-08-19T14:15:06;11.30;;;3.70;;
57327;SDS011;43162;51.040;18.244;2022-08-19T14:17:32;13.50;;;3.30;;
57327;SDS011;43162;51.040;18.244;2022-08-19T14:20:01;16.00;;;3.70;;
57327;SDS011;43162;51.040;18.244;2022-08-19T14:22:29;10.00;;;3.60;;
57327;SDS011;43162;51.040;18.244;2022-08-19T14:24:56;12.40;;;3.60;;